Lawrence H.gianella — NBBK — position and weather

sailwx.info

Track history (hours):
 
Tides and Currents Weather Stations Pressure Air Temp Water Temp Dewpoint Dewpoint Depression Visibility Wind Speed Wind Dir Waves Ship Positions

Lawrence H.gianella

Last reported at 2017-Nov-10 20:57 UTC. Time now 2017-Nov-21 13:44 UTC.
Position N 36°52' W 076°19'.
Warning: this ship's position is 10 days out of date.

Type: Ship. MMSI: 367128000.

Date/timePositionNaut miles runAvg speedWind from/ knotsBaromVisibWave heightAir tempDewpointWater temp
2017-Nov-10 20:57N 36°52' W 076°19'0 0.9
2017-Nov-10 20:31N 36°52' W 076°20'1 2.2
2017-Nov-10 19:58N 36°53' W 076°20'0 0.0
2017-Nov-09 16:27N 36°53' W 076°20'0 0.0
2017-Nov-09 16:00N 36°53' W 076°20'2 4.4
2017-Nov-09 15:30N 36°55' W 076°20'6 9.9
2017-Nov-09 14:52N 37°00' W 076°16'514.4
2017-Nov-09 14:31N 36°59' W 076°09'713.8
2017-Nov-09 14:00N 36°57' W 076°01'5 9.8
2017-Nov-09 13:30N 36°55' W 075°55'4 8.8
2017-Nov-09 13:00N 36°52' W 075°51'4 8.3
2017-Nov-09 12:30N 36°50' W 075°47'  
2017-Nov-06 22:38N 30°21' W 081°04'412.8
2017-Nov-06 22:20N 30°21' W 080°60'24512.1
2017-Nov-06 02:04N 26°26' W 079°41'117.1
2017-Nov-06 02:00N 26°25' W 079°41'1117.1
2017-Nov-06 01:23N 26°14' W 079°41'614.9
2017-Nov-06 01:01N 26°10' W 079°44'816.2
2017-Nov-06 00:31N 26°02' W 079°47'917.2
2017-Nov-06 00:01N 25°53' W 079°48'917.3
2017-Nov-05 23:30N 25°45' W 079°48'917.2
2017-Nov-05 23:01N 25°36' W 079°49'816.0
2017-Nov-05 22:31N 25°29' W 079°52'816.4
2017-Nov-05 22:01N 25°22' W 079°58'816.8
2017-Nov-05 21:30N 25°14' W 080°01'  
2017-Nov-03 06:44N 29°24' W 094°49'312.6
2017-Nov-03 06:29N 29°27' W 094°51'612.4
2017-Nov-03 06:00N 29°32' W 094°54'611.5
2017-Nov-03 05:30N 29°37' W 094°57'510.4
2017-Nov-03 05:00N 29°42' W 094°60'2 4.6
2017-Nov-03 04:30N 29°44' W 095°01'0 0.0
2017-Nov-03 03:54N 29°44' W 095°01'0 0.0
2017-Nov-03 03:27N 29°44' W 095°01'0 0.0
2017-Nov-03 03:00N 29°44' W 095°01'0 0.0
2017-Nov-03 02:24N 29°44' W 095°01'0 0.0
2017-Nov-03 02:00N 29°44' W 095°01'0 0.0
2017-Nov-03 01:24N 29°44' W 095°01'  
Track history (hours):
 
Tides and Currents Weather Stations Pressure Air Temp Water Temp Dewpoint Dewpoint Depression Visibility Wind Speed Wind Dir Waves Ship Positions

Lawrence H.gianella

Last reported at 2017-Nov-10 20:57 UTC. Time now 2017-Nov-21 13:44 UTC.
Position N 36°52' W 076°19'.
Warning: this ship's position is 10 days out of date.

Type: Ship. MMSI: 367128000.

Date/timePositionNaut miles runAvg speedWind from/ knotsBaromVisibWave heightAir tempDewpointWater temp
2017-Nov-10 20:57N 36°52' W 076°19'0 0.9
2017-Nov-10 20:31N 36°52' W 076°20'1 2.2
2017-Nov-10 19:58N 36°53' W 076°20'0 0.0
2017-Nov-09 16:27N 36°53' W 076°20'0 0.0
2017-Nov-09 16:00N 36°53' W 076°20'2 4.4
2017-Nov-09 15:30N 36°55' W 076°20'6 9.9
2017-Nov-09 14:52N 37°00' W 076°16'514.4
2017-Nov-09 14:31N 36°59' W 076°09'713.8
2017-Nov-09 14:00N 36°57' W 076°01'5 9.8
2017-Nov-09 13:30N 36°55' W 075°55'4 8.8
2017-Nov-09 13:00N 36°52' W 075°51'4 8.3
2017-Nov-09 12:30N 36°50' W 075°47'  
2017-Nov-06 22:38N 30°21' W 081°04'412.8
2017-Nov-06 22:20N 30°21' W 080°60'24512.1
2017-Nov-06 02:04N 26°26' W 079°41'117.1
2017-Nov-06 02:00N 26°25' W 079°41'1117.1
2017-Nov-06 01:23N 26°14' W 079°41'614.9
2017-Nov-06 01:01N 26°10' W 079°44'816.2
2017-Nov-06 00:31N 26°02' W 079°47'917.2
2017-Nov-06 00:01N 25°53' W 079°48'917.3
2017-Nov-05 23:30N 25°45' W 079°48'917.2
2017-Nov-05 23:01N 25°36' W 079°49'816.0
2017-Nov-05 22:31N 25°29' W 079°52'816.4
2017-Nov-05 22:01N 25°22' W 079°58'816.8
2017-Nov-05 21:30N 25°14' W 080°01'  
2017-Nov-03 06:44N 29°24' W 094°49'312.6
2017-Nov-03 06:29N 29°27' W 094°51'612.4
2017-Nov-03 06:00N 29°32' W 094°54'611.5
2017-Nov-03 05:30N 29°37' W 094°57'510.4
2017-Nov-03 05:00N 29°42' W 094°60'2 4.6
2017-Nov-03 04:30N 29°44' W 095°01'0 0.0
2017-Nov-03 03:54N 29°44' W 095°01'0 0.0
2017-Nov-03 03:27N 29°44' W 095°01'0 0.0
2017-Nov-03 03:00N 29°44' W 095°01'0 0.0
2017-Nov-03 02:24N 29°44' W 095°01'0 0.0
2017-Nov-03 02:00N 29°44' W 095°01'0 0.0
2017-Nov-03 01:24N 29°44' W 095°01'  

Dump ship's entire track history